Philadelphia, Pennsylvania
Traffic Map
Current Weather Conditions
Philadelphia, Pennsylvania
Overcast
Overcast
20°
Feels Like: 20°
Wind Chill: 20° Ceiling: 15000
Heat Index: 20° Visibility: 10mi
Dew Point: 12° Wind: 6mph
Humidity: 59% Direction: 320° (NW)
Pressure: 30in Gusts: 0mph
Raw Report DataKPHL 300454Z 32005KT 10SM SCT090 BKN150 OVC200 20/12 A3000 RMK AO2 SLP157 T02000117 402440178 $
Traffic Incident Summary
Active as of:
Severity:
Category:
InformationThere was an issue retrieving the traffic information for this location. Please try a different location or try again shortly.
Advertisements
Track Severe Weather on mobile